sensor_id;sensor_type;location;lat;lon;timestamp;temperature;humidity
37408;DHT22;24866;50.248;8.252;2023-09-07T00:00:45;16.10;99.90
37408;DHT22;24866;50.248;8.252;2023-09-07T00:03:15;16.00;99.90
37408;DHT22;24866;50.248;8.252;2023-09-07T00:05:46;16.00;99.90
37408;DHT22;24866;50.248;8.252;2023-09-07T00:08:16;15.80;99.90
37408;DHT22;24866;50.248;8.252;2023-09-07T00:10:46;15.50;99.90
37408;DHT22;24866;50.248;8.252;2023-09-07T00:13:16;14.90;99.90
37408;DHT22;24866;50.248;8.252;2023-09-07T00:15:46;14.30;99.90
37408;DHT22;24866;50.248;8.252;2023-09-07T00:18:16;14.50;99.90
37408;DHT22;24866;50.248;8.252;2023-09-07T00:20:47;14.00;99.90
37408;DHT22;24866;50.248;8.252;2023-09-07T00:23:17;13.90;99.90
37408;DHT22;24866;50.248;8.252;2023-09-07T00:25:48;13.90;99.90
37408;DHT22;24866;50.248;8.252;2023-09-07T00:28:18;14.20;99.90
37408;DHT22;24866;50.248;8.252;2023-09-07T00:30:48;14.00;99.90
37408;DHT22;24866;50.248;8.252;2023-09-07T00:33:18;14.10;99.90
37408;DHT22;24866;50.248;8.252;2023-09-07T00:35:49;13.80;99.90
37408;DHT22;24866;50.248;8.252;2023-09-07T00:38:19;13.80;99.90
37408;DHT22;24866;50.248;8.252;2023-09-07T00:40:49;13.60;99.90
37408;DHT22;24866;50.248;8.252;2023-09-07T00:43:18;13.70;99.90
37408;DHT22;24866;50.248;8.252;2023-09-07T00:45:48;14.00;99.90
37408;DHT22;24866;50.248;8.252;2023-09-07T00:48:19;14.30;99.90
37408;DHT22;24866;50.248;8.252;2023-09-07T00:50:50;14.70;99.90
37408;DHT22;24866;50.248;8.252;2023-09-07T00:53:20;14.80;99.90
37408;DHT22;24866;50.248;8.252;2023-09-07T00:55:51;14.80;99.90
37408;DHT22;24866;50.248;8.252;2023-09-07T00:58:21;14.80;99.90
37408;DHT22;24866;50.248;8.252;2023-09-07T01:00:51;14.90;99.90
37408;DHT22;24866;50.248;8.252;2023-09-07T01:03:21;14.30;99.90
37408;DHT22;24866;50.248;8.252;2023-09-07T01:05:58;14.40;99.90
37408;DHT22;24866;50.248;8.252;2023-09-07T01:08:35;14.50;99.90
37408;DHT22;24866;50.248;8.252;2023-09-07T01:11:13;14.30;99.90
37408;DHT22;24866;50.248;8.252;2023-09-07T01:13:43;14.70;99.90
37408;DHT22;24866;50.248;8.252;2023-09-07T01:16:13;14.70;99.90
37408;DHT22;24866;50.248;8.252;2023-09-07T01:18:43;14.70;99.90
37408;DHT22;24866;50.248;8.252;2023-09-07T01:21:14;14.70;99.90
37408;DHT22;24866;50.248;8.252;2023-09-07T01:23:46;14.90;99.90
37408;DHT22;24866;50.248;8.252;2023-09-07T01:26:17;14.90;99.90
37408;DHT22;24866;50.248;8.252;2023-09-07T01:28:47;14.50;99.90
37408;DHT22;24866;50.248;8.252;2023-09-07T01:31:17;14.60;99.90
37408;DHT22;24866;50.248;8.252;2023-09-07T01:33:47;14.80;99.90
37408;DHT22;24866;50.248;8.252;2023-09-07T01:36:16;14.70;99.90
37408;DHT22;24866;50.248;8.252;2023-09-07T01:38:48;14.80;99.90
37408;DHT22;24866;50.248;8.252;2023-09-07T01:41:18;14.40;99.90
37408;DHT22;24866;50.248;8.252;2023-09-07T01:43:48;14.30;99.90
37408;DHT22;24866;50.248;8.252;2023-09-07T01:46:17;13.90;99.90
37408;DHT22;24866;50.248;8.252;2023-09-07T01:48:47;14.20;99.90
37408;DHT22;24866;50.248;8.252;2023-09-07T01:51:17;14.10;99.90
37408;DHT22;24866;50.248;8.252;2023-09-07T01:53:48;13.70;99.90
37408;DHT22;24866;50.248;8.252;2023-09-07T01:56:18;13.50;99.90
37408;DHT22;24866;50.248;8.252;2023-09-07T01:58:48;13.90;99.90
37408;DHT22;24866;50.248;8.252;2023-09-07T02:01:22;13.50;99.90
37408;DHT22;24866;50.248;8.252;2023-09-07T02:03:52;13.40;99.90
37408;DHT22;24866;50.248;8.252;2023-09-07T02:06:23;13.50;99.90
37408;DHT22;24866;50.248;8.252;2023-09-07T02:08:54;13.90;99.90
37408;DHT22;24866;50.248;8.252;2023-09-07T02:11:24;13.80;99.90
37408;DHT22;24866;50.248;8.252;2023-09-07T02:13:54;14.00;99.90
37408;DHT22;24866;50.248;8.252;2023-09-07T02:16:24;14.10;99.90
37408;DHT22;24866;50.248;8.252;2023-09-07T02:19:02;14.00;99.90
37408;DHT22;24866;50.248;8.252;2023-09-07T02:21:33;14.00;99.90
37408;DHT22;24866;50.248;8.252;2023-09-07T02:24:05;14.10;99.90
37408;DHT22;24866;50.248;8.252;2023-09-07T02:26:34;14.10;99.90
37408;DHT22;24866;50.248;8.252;2023-09-07T02:29:04;14.10;99.90
37408;DHT22;24866;50.248;8.252;2023-09-07T02:31:35;13.80;99.90
37408;DHT22;24866;50.248;8.252;2023-09-07T02:34:05;13.70;99.90
37408;DHT22;24866;50.248;8.252;2023-09-07T02:36:34;13.70;99.90
37408;DHT22;24866;50.248;8.252;2023-09-07T02:39:05;13.60;99.90
37408;DHT22;24866;50.248;8.252;2023-09-07T02:41:37;13.60;99.90
37408;DHT22;24866;50.248;8.252;2023-09-07T02:44:07;13.50;99.90
37408;DHT22;24866;50.248;8.252;2023-09-07T02:46:37;13.30;99.90
37408;DHT22;24866;50.248;8.252;2023-09-07T02:49:06;13.40;99.90
37408;DHT22;24866;50.248;8.252;2023-09-07T02:51:36;13.40;99.90
37408;DHT22;24866;50.248;8.252;2023-09-07T02:54:07;13.40;99.90
37408;DHT22;24866;50.248;8.252;2023-09-07T02:56:37;13.40;99.90
37408;DHT22;24866;50.248;8.252;2023-09-07T02:59:07;13.20;99.90
37408;DHT22;24866;50.248;8.252;2023-09-07T03:01:38;13.30;99.90
37408;DHT22;24866;50.248;8.252;2023-09-07T03:04:08;13.60;99.90
37408;DHT22;24866;50.248;8.252;2023-09-07T03:06:38;13.80;99.90
37408;DHT22;24866;50.248;8.252;2023-09-07T03:09:09;13.70;99.90
37408;DHT22;24866;50.248;8.252;2023-09-07T03:11:39;13.60;99.90
37408;DHT22;24866;50.248;8.252;2023-09-07T03:14:09;13.60;99.90
37408;DHT22;24866;50.248;8.252;2023-09-07T03:16:39;13.70;99.90
37408;DHT22;24866;50.248;8.252;2023-09-07T03:19:09;13.50;99.90
37408;DHT22;24866;50.248;8.252;2023-09-07T03:21:39;13.40;99.90
37408;DHT22;24866;50.248;8.252;2023-09-07T03:24:10;13.60;99.90
37408;DHT22;24866;50.248;8.252;2023-09-07T03:26:40;13.40;99.90
37408;DHT22;24866;50.248;8.252;2023-09-07T03:29:09;13.40;99.90
37408;DHT22;24866;50.248;8.252;2023-09-07T03:31:39;13.50;99.90
37408;DHT22;24866;50.248;8.252;2023-09-07T03:34:09;13.30;99.90
37408;DHT22;24866;50.248;8.252;2023-09-07T03:36:39;13.40;99.90
37408;DHT22;24866;50.248;8.252;2023-09-07T03:39:10;13.30;99.90
37408;DHT22;24866;50.248;8.252;2023-09-07T03:41:40;13.40;99.90
37408;DHT22;24866;50.248;8.252;2023-09-07T03:44:09;13.30;99.90
37408;DHT22;24866;50.248;8.252;2023-09-07T03:46:39;13.30;99.90
37408;DHT22;24866;50.248;8.252;2023-09-07T03:49:09;13.20;99.90
37408;DHT22;24866;50.248;8.252;2023-09-07T03:51:39;13.20;99.90
37408;DHT22;24866;50.248;8.252;2023-09-07T03:54:10;13.40;99.90
37408;DHT22;24866;50.248;8.252;2023-09-07T03:56:39;13.40;99.90
37408;DHT22;24866;50.248;8.252;2023-09-07T03:59:09;13.30;99.90
37408;DHT22;24866;50.248;8.252;2023-09-07T04:01:40;13.30;99.90
37408;DHT22;24866;50.248;8.252;2023-09-07T04:04:09;13.20;99.90
37408;DHT22;24866;50.248;8.252;2023-09-07T04:06:39;12.90;99.90
37408;DHT22;24866;50.248;8.252;2023-09-07T04:09:10;12.90;99.90
37408;DHT22;24866;50.248;8.252;2023-09-07T04:11:40;12.90;99.90
37408;DHT22;24866;50.248;8.252;2023-09-07T04:14:10;13.00;99.90
37408;DHT22;24866;50.248;8.252;2023-09-07T04:16:40;13.20;99.90
37408;DHT22;24866;50.248;8.252;2023-09-07T04:19:09;13.20;99.90
37408;DHT22;24866;50.248;8.252;2023-09-07T04:21:39;13.10;99.90
37408;DHT22;24866;50.248;8.252;2023-09-07T04:24:11;13.10;99.90
37408;DHT22;24866;50.248;8.252;2023-09-07T04:26:40;13.10;99.90
37408;DHT22;24866;50.248;8.252;2023-09-07T04:29:10;13.00;99.90
37408;DHT22;24866;50.248;8.252;2023-09-07T04:31:41;12.80;99.90
37408;DHT22;24866;50.248;8.252;2023-09-07T04:34:11;12.80;99.90
37408;DHT22;24866;50.248;8.252;2023-09-07T04:36:41;12.90;99.90
37408;DHT22;24866;50.248;8.252;2023-09-07T04:39:12;12.80;99.90
37408;DHT22;24866;50.248;8.252;2023-09-07T04:41:43;12.90;99.90
37408;DHT22;24866;50.248;8.252;2023-09-07T04:44:13;12.90;99.90
37408;DHT22;24866;50.248;8.252;2023-09-07T04:46:43;12.90;99.90
37408;DHT22;24866;50.248;8.252;2023-09-07T04:49:13;12.90;99.90
37408;DHT22;24866;50.248;8.252;2023-09-07T04:51:42;12.80;99.90
37408;DHT22;24866;50.248;8.252;2023-09-07T04:54:14;13.10;99.90
37408;DHT22;24866;50.248;8.252;2023-09-07T04:56:44;13.10;99.90
37408;DHT22;24866;50.248;8.252;2023-09-07T04:59:14;13.10;99.90
37408;DHT22;24866;50.248;8.252;2023-09-07T05:01:44;13.10;99.90
37408;DHT22;24866;50.248;8.252;2023-09-07T05:04:14;12.90;99.90
37408;DHT22;24866;50.248;8.252;2023-09-07T05:06:43;12.80;99.90
37408;DHT22;24866;50.248;8.252;2023-09-07T05:09:15;12.90;99.90
37408;DHT22;24866;50.248;8.252;2023-09-07T05:11:44;13.00;99.90
37408;DHT22;24866;50.248;8.252;2023-09-07T05:14:14;12.90;99.90
37408;DHT22;24866;50.248;8.252;2023-09-07T05:16:44;12.90;99.90
37408;DHT22;24866;50.248;8.252;2023-09-07T05:19:14;12.80;99.90
37408;DHT22;24866;50.248;8.252;2023-09-07T05:21:44;13.00;99.90
37408;DHT22;24866;50.248;8.252;2023-09-07T05:24:15;13.10;99.90
37408;DHT22;24866;50.248;8.252;2023-09-07T05:26:45;13.00;99.90
37408;DHT22;24866;50.248;8.252;2023-09-07T05:29:14;13.00;99.90
37408;DHT22;24866;50.248;8.252;2023-09-07T05:31:44;12.80;99.90
37408;DHT22;24866;50.248;8.252;2023-09-07T05:34:14;12.80;99.90
37408;DHT22;24866;50.248;8.252;2023-09-07T05:36:44;12.70;99.90
37408;DHT22;24866;50.248;8.252;2023-09-07T05:39:15;12.60;99.90
37408;DHT22;24866;50.248;8.252;2023-09-07T05:41:45;12.60;99.90
37408;DHT22;24866;50.248;8.252;2023-09-07T05:44:15;12.80;99.90
37408;DHT22;24866;50.248;8.252;2023-09-07T05:46:44;13.00;99.90
37408;DHT22;24866;50.248;8.252;2023-09-07T05:49:14;13.20;99.90
37408;DHT22;24866;50.248;8.252;2023-09-07T05:51:44;13.00;99.90
37408;DHT22;24866;50.248;8.252;2023-09-07T05:54:15;13.10;99.90
37408;DHT22;24866;50.248;8.252;2023-09-07T05:56:45;13.00;99.90
37408;DHT22;24866;50.248;8.252;2023-09-07T05:59:15;13.10;99.90
37408;DHT22;24866;50.248;8.252;2023-09-07T06:01:45;12.80;99.90
37408;DHT22;24866;50.248;8.252;2023-09-07T06:04:15;12.80;99.90
37408;DHT22;24866;50.248;8.252;2023-09-07T06:06:45;13.00;99.90
37408;DHT22;24866;50.248;8.252;2023-09-07T06:09:16;13.10;99.90
37408;DHT22;24866;50.248;8.252;2023-09-07T06:11:46;13.30;99.90
37408;DHT22;24866;50.248;8.252;2023-09-07T06:14:16;13.40;99.90
37408;DHT22;24866;50.248;8.252;2023-09-07T06:16:46;13.60;99.90
37408;DHT22;24866;50.248;8.252;2023-09-07T06:19:16;13.80;99.90
37408;DHT22;24866;50.248;8.252;2023-09-07T06:21:46;14.00;99.90
37408;DHT22;24866;50.248;8.252;2023-09-07T06:24:17;14.00;99.90
37408;DHT22;24866;50.248;8.252;2023-09-07T06:26:47;14.20;99.90
37408;DHT22;24866;50.248;8.252;2023-09-07T06:29:18;14.30;99.90
37408;DHT22;24866;50.248;8.252;2023-09-07T06:31:48;14.50;99.90
37408;DHT22;24866;50.248;8.252;2023-09-07T06:34:18;14.50;99.90
37408;DHT22;24866;50.248;8.252;2023-09-07T06:36:48;14.70;99.90
37408;DHT22;24866;50.248;8.252;2023-09-07T06:39:19;14.90;99.90
37408;DHT22;24866;50.248;8.252;2023-09-07T06:41:49;15.00;99.90
37408;DHT22;24866;50.248;8.252;2023-09-07T06:44:19;14.80;99.90
37408;DHT22;24866;50.248;8.252;2023-09-07T06:46:49;14.80;99.90
37408;DHT22;24866;50.248;8.252;2023-09-07T06:49:19;14.90;99.90
37408;DHT22;24866;50.248;8.252;2023-09-07T06:51:48;15.20;99.90
37408;DHT22;24866;50.248;8.252;2023-09-07T06:54:19;15.30;99.90
37408;DHT22;24866;50.248;8.252;2023-09-07T06:56:49;15.60;99.90
37408;DHT22;24866;50.248;8.252;2023-09-07T06:59:19;15.80;99.90
37408;DHT22;24866;50.248;8.252;2023-09-07T07:01:49;15.80;99.90
37408;DHT22;24866;50.248;8.252;2023-09-07T07:04:19;16.00;99.90
37408;DHT22;24866;50.248;8.252;2023-09-07T07:06:49;16.10;99.90
37408;DHT22;24866;50.248;8.252;2023-09-07T07:09:20;16.40;99.90
37408;DHT22;24866;50.248;8.252;2023-09-07T07:11:50;16.60;99.90
37408;DHT22;24866;50.248;8.252;2023-09-07T07:14:20;16.90;99.90
37408;DHT22;24866;50.248;8.252;2023-09-07T07:16:49;17.10;99.90
37408;DHT22;24866;50.248;8.252;2023-09-07T07:19:19;17.30;99.90
37408;DHT22;24866;50.248;8.252;2023-09-07T07:21:49;17.50;99.90
37408;DHT22;24866;50.248;8.252;2023-09-07T07:24:20;17.70;99.90
37408;DHT22;24866;50.248;8.252;2023-09-07T07:26:50;17.90;99.90
37408;DHT22;24866;50.248;8.252;2023-09-07T07:29:20;18.10;99.90
37408;DHT22;24866;50.248;8.252;2023-09-07T07:31:50;17.80;99.90
37408;DHT22;24866;50.248;8.252;2023-09-07T07:34:20;18.00;99.90
37408;DHT22;24866;50.248;8.252;2023-09-07T07:36:50;18.20;99.90
37408;DHT22;24866;50.248;8.252;2023-09-07T07:39:21;18.20;99.90
37408;DHT22;24866;50.248;8.252;2023-09-07T07:41:51;18.30;99.90
37408;DHT22;24866;50.248;8.252;2023-09-07T07:44:21;18.50;99.90
37408;DHT22;24866;50.248;8.252;2023-09-07T07:46:51;18.60;99.90
37408;DHT22;24866;50.248;8.252;2023-09-07T07:49:21;19.00;99.90
37408;DHT22;24866;50.248;8.252;2023-09-07T07:51:51;18.80;99.90
37408;DHT22;24866;50.248;8.252;2023-09-07T07:54:25;19.10;99.90
37408;DHT22;24866;50.248;8.252;2023-09-07T07:56:54;19.10;99.90
37408;DHT22;24866;50.248;8.252;2023-09-07T07:59:24;19.30;99.90
37408;DHT22;24866;50.248;8.252;2023-09-07T08:01:54;19.60;99.90
37408;DHT22;24866;50.248;8.252;2023-09-07T08:04:24;19.90;99.90
37408;DHT22;24866;50.248;8.252;2023-09-07T08:06:54;19.90;99.90
37408;DHT22;24866;50.248;8.252;2023-09-07T08:09:30;20.60;99.90
37408;DHT22;24866;50.248;8.252;2023-09-07T08:12:00;20.70;99.90
37408;DHT22;24866;50.248;8.252;2023-09-07T08:14:31;20.70;99.90
37408;DHT22;24866;50.248;8.252;2023-09-07T08:17:02;20.80;99.90
37408;DHT22;24866;50.248;8.252;2023-09-07T08:19:33;21.20;99.90
37408;DHT22;24866;50.248;8.252;2023-09-07T08:22:04;21.10;99.90
37408;DHT22;24866;50.248;8.252;2023-09-07T08:24:36;21.50;99.90
37408;DHT22;24866;50.248;8.252;2023-09-07T08:27:06;21.60;99.90
37408;DHT22;24866;50.248;8.252;2023-09-07T08:29:40;21.60;99.90
37408;DHT22;24866;50.248;8.252;2023-09-07T08:32:10;21.60;99.90
37408;DHT22;24866;50.248;8.252;2023-09-07T08:34:40;22.10;99.90
37408;DHT22;24866;50.248;8.252;2023-09-07T08:37:10;21.80;99.90
37408;DHT22;24866;50.248;8.252;2023-09-07T08:39:41;22.60;99.90
37408;DHT22;24866;50.248;8.252;2023-09-07T08:42:12;22.70;99.90
37408;DHT22;24866;50.248;8.252;2023-09-07T08:44:42;23.10;99.90
37408;DHT22;24866;50.248;8.252;2023-09-07T08:47:15;23.50;99.90
37408;DHT22;24866;50.248;8.252;2023-09-07T08:49:47;23.80;99.90
37408;DHT22;24866;50.248;8.252;2023-09-07T08:52:19;24.00;99.90
37408;DHT22;24866;50.248;8.252;2023-09-07T08:54:52;24.10;99.90
37408;DHT22;24866;50.248;8.252;2023-09-07T08:57:22;24.50;99.90
37408;DHT22;24866;50.248;8.252;2023-09-07T08:59:52;24.50;99.90
37408;DHT22;24866;50.248;8.252;2023-09-07T09:02:23;24.60;99.90
37408;DHT22;24866;50.248;8.252;2023-09-07T09:04:53;24.80;99.90
37408;DHT22;24866;50.248;8.252;2023-09-07T09:07:23;25.00;99.90
37408;DHT22;24866;50.248;8.252;2023-09-07T09:10:04;25.20;99.90
37408;DHT22;24866;50.248;8.252;2023-09-07T09:12:35;25.30;99.90
37408;DHT22;24866;50.248;8.252;2023-09-07T09:15:06;25.20;99.90
37408;DHT22;24866;50.248;8.252;2023-09-07T09:17:36;25.20;99.90
37408;DHT22;24866;50.248;8.252;2023-09-07T09:20:20;25.00;99.90
37408;DHT22;24866;50.248;8.252;2023-09-07T09:22:52;25.40;99.90
37408;DHT22;24866;50.248;8.252;2023-09-07T09:25:24;25.70;99.90
37408;DHT22;24866;50.248;8.252;2023-09-07T09:27:55;25.70;99.90
37408;DHT22;24866;50.248;8.252;2023-09-07T09:30:25;25.90;99.90
37408;DHT22;24866;50.248;8.252;2023-09-07T09:32:56;26.00;99.90
37408;DHT22;24866;50.248;8.252;2023-09-07T09:35:26;26.00;99.90
37408;DHT22;24866;50.248;8.252;2023-09-07T09:38:00;25.90;99.90
37408;DHT22;24866;50.248;8.252;2023-09-07T09:40:34;25.90;99.90
37408;DHT22;24866;50.248;8.252;2023-09-07T09:43:05;25.70;99.90
37408;DHT22;24866;50.248;8.252;2023-09-07T09:45:37;25.70;99.90
37408;DHT22;24866;50.248;8.252;2023-09-07T09:48:09;25.70;99.90
37408;DHT22;24866;50.248;8.252;2023-09-07T09:50:40;25.70;99.90
37408;DHT22;24866;50.248;8.252;2023-09-07T09:53:12;26.00;99.90
37408;DHT22;24866;50.248;8.252;2023-09-07T09:55:46;26.00;99.90
37408;DHT22;24866;50.248;8.252;2023-09-07T09:58:17;26.20;99.90
37408;DHT22;24866;50.248;8.252;2023-09-07T10:00:56;26.50;99.90
37408;DHT22;24866;50.248;8.252;2023-09-07T10:03:31;26.70;99.90
37408;DHT22;24866;50.248;8.252;2023-09-07T10:06:08;26.30;99.90
37408;DHT22;24866;50.248;8.252;2023-09-07T10:08:39;26.60;99.90
37408;DHT22;24866;50.248;8.252;2023-09-07T10:11:11;26.80;99.90
37408;DHT22;24866;50.248;8.252;2023-09-07T10:13:41;26.50;99.90
37408;DHT22;24866;50.248;8.252;2023-09-07T10:16:11;26.60;99.90
37408;DHT22;24866;50.248;8.252;2023-09-07T10:18:41;26.40;99.90
37408;DHT22;24866;50.248;8.252;2023-09-07T10:21:13;26.30;99.90
37408;DHT22;24866;50.248;8.252;2023-09-07T10:23:45;26.70;99.90
37408;DHT22;24866;50.248;8.252;2023-09-07T10:26:18;27.10;99.90
37408;DHT22;24866;50.248;8.252;2023-09-07T10:28:59;27.20;99.90
37408;DHT22;24866;50.248;8.252;2023-09-07T10:31:29;26.80;99.90
37408;DHT22;24866;50.248;8.252;2023-09-07T10:34:09;26.70;99.90
37408;DHT22;24866;50.248;8.252;2023-09-07T10:36:40;26.90;99.90
37408;DHT22;24866;50.248;8.252;2023-09-07T10:39:11;27.00;99.90
37408;DHT22;24866;50.248;8.252;2023-09-07T10:41:43;26.90;99.90
37408;DHT22;24866;50.248;8.252;2023-09-07T10:44:13;26.80;99.90
37408;DHT22;24866;50.248;8.252;2023-09-07T10:46:43;26.90;99.90
37408;DHT22;24866;50.248;8.252;2023-09-07T10:49:13;27.10;99.90
37408;DHT22;24866;50.248;8.252;2023-09-07T10:51:48;27.20;99.90
37408;DHT22;24866;50.248;8.252;2023-09-07T10:54:23;27.20;99.90
37408;DHT22;24866;50.248;8.252;2023-09-07T10:56:55;27.20;99.90
37408;DHT22;24866;50.248;8.252;2023-09-07T10:59:27;27.40;99.90
37408;DHT22;24866;50.248;8.252;2023-09-07T11:02:04;27.50;99.90
37408;DHT22;24866;50.248;8.252;2023-09-07T11:04:34;27.40;99.90
37408;DHT22;24866;50.248;8.252;2023-09-07T11:07:04;27.50;99.90
37408;DHT22;24866;50.248;8.252;2023-09-07T11:09:40;27.30;99.90
37408;DHT22;24866;50.248;8.252;2023-09-07T11:12:13;27.30;99.90
37408;DHT22;24866;50.248;8.252;2023-09-07T11:14:47;27.70;99.90
37408;DHT22;24866;50.248;8.252;2023-09-07T11:17:17;27.70;99.90
37408;DHT22;24866;50.248;8.252;2023-09-07T11:19:51;27.50;99.90
37408;DHT22;24866;50.248;8.252;2023-09-07T11:22:22;27.60;99.90
37408;DHT22;24866;50.248;8.252;2023-09-07T11:24:52;27.90;99.90
37408;DHT22;24866;50.248;8.252;2023-09-07T11:27:23;28.10;99.90
37408;DHT22;24866;50.248;8.252;2023-09-07T11:29:55;27.80;99.90
37408;DHT22;24866;50.248;8.252;2023-09-07T11:32:33;27.70;99.90
37408;DHT22;24866;50.248;8.252;2023-09-07T11:35:04;27.80;99.90
37408;DHT22;24866;50.248;8.252;2023-09-07T11:37:36;27.70;99.90
37408;DHT22;24866;50.248;8.252;2023-09-07T11:40:07;27.80;99.90
37408;DHT22;24866;50.248;8.252;2023-09-07T11:42:42;28.20;99.90
37408;DHT22;24866;50.248;8.252;2023-09-07T11:45:11;28.10;99.90
37408;DHT22;24866;50.248;8.252;2023-09-07T11:47:42;28.00;99.90
37408;DHT22;24866;50.248;8.252;2023-09-07T11:50:12;28.60;99.90
37408;DHT22;24866;50.248;8.252;2023-09-07T11:52:41;29.00;99.90
37408;DHT22;24866;50.248;8.252;2023-09-07T11:55:14;29.30;99.90
37408;DHT22;24866;50.248;8.252;2023-09-07T11:57:45;29.50;99.90
37408;DHT22;24866;50.248;8.252;2023-09-07T12:00:18;29.70;99.90
37408;DHT22;24866;50.248;8.252;2023-09-07T12:02:48;29.80;99.90
37408;DHT22;24866;50.248;8.252;2023-09-07T12:05:19;30.00;99.90
37408;DHT22;24866;50.248;8.252;2023-09-07T12:07:49;29.70;99.90
37408;DHT22;24866;50.248;8.252;2023-09-07T12:10:19;29.70;99.90
37408;DHT22;24866;50.248;8.252;2023-09-07T12:12:53;29.70;99.90
37408;DHT22;24866;50.248;8.252;2023-09-07T12:15:23;30.20;99.90
37408;DHT22;24866;50.248;8.252;2023-09-07T12:17:53;29.70;99.90
37408;DHT22;24866;50.248;8.252;2023-09-07T12:20:24;29.90;99.90
37408;DHT22;24866;50.248;8.252;2023-09-07T12:22:54;30.70;99.90
37408;DHT22;24866;50.248;8.252;2023-09-07T12:25:24;31.00;99.90
37408;DHT22;24866;50.248;8.252;2023-09-07T12:27:56;30.60;99.90
37408;DHT22;24866;50.248;8.252;2023-09-07T12:30:26;30.80;99.90
37408;DHT22;24866;50.248;8.252;2023-09-07T12:32:57;31.00;99.90
37408;DHT22;24866;50.248;8.252;2023-09-07T12:35:26;31.30;99.90
37408;DHT22;24866;50.248;8.252;2023-09-07T12:37:57;31.40;99.90
37408;DHT22;24866;50.248;8.252;2023-09-07T12:40:27;31.40;99.90
37408;DHT22;24866;50.248;8.252;2023-09-07T12:42:59;31.20;99.90
37408;DHT22;24866;50.248;8.252;2023-09-07T12:45:29;30.90;1.00
37408;DHT22;24866;50.248;8.252;2023-09-07T12:47:59;30.80;99.90
37408;DHT22;24866;50.248;8.252;2023-09-07T12:50:30;31.10;1.00
37408;DHT22;24866;50.248;8.252;2023-09-07T12:53:00;30.50;99.90
37408;DHT22;24866;50.248;8.252;2023-09-07T12:55:30;31.00;1.00
37408;DHT22;24866;50.248;8.252;2023-09-07T12:58:03;31.20;99.90
37408;DHT22;24866;50.248;8.252;2023-09-07T13:00:33;30.40;1.00
37408;DHT22;24866;50.248;8.252;2023-09-07T13:03:05;30.70;1.00
37408;DHT22;24866;50.248;8.252;2023-09-07T13:05:35;31.20;1.00
37408;DHT22;24866;50.248;8.252;2023-09-07T13:08:05;31.40;1.00
37408;DHT22;24866;50.248;8.252;2023-09-07T13:10:35;31.80;1.00
37408;DHT22;24866;50.248;8.252;2023-09-07T13:13:07;31.80;1.00
37408;DHT22;24866;50.248;8.252;2023-09-07T13:15:37;31.50;99.90
37408;DHT22;24866;50.248;8.252;2023-09-07T13:18:07;31.50;99.90
37408;DHT22;24866;50.248;8.252;2023-09-07T13:20:37;31.80;99.90
37408;DHT22;24866;50.248;8.252;2023-09-07T13:23:07;31.70;1.00
37408;DHT22;24866;50.248;8.252;2023-09-07T13:25:37;31.60;1.00
37408;DHT22;24866;50.248;8.252;2023-09-07T13:28:08;32.00;1.00
37408;DHT22;24866;50.248;8.252;2023-09-07T13:30:40;32.10;1.00
37408;DHT22;24866;50.248;8.252;2023-09-07T13:33:10;32.10;1.00
37408;DHT22;24866;50.248;8.252;2023-09-07T13:35:40;32.20;1.00
37408;DHT22;24866;50.248;8.252;2023-09-07T13:38:10;32.10;99.90
37408;DHT22;24866;50.248;8.252;2023-09-07T13:40:40;31.60;99.90
37408;DHT22;24866;50.248;8.252;2023-09-07T13:43:11;31.60;99.90
37408;DHT22;24866;50.248;8.252;2023-09-07T13:45:41;31.80;90.00
37408;DHT22;24866;50.248;8.252;2023-09-07T13:48:12;32.20;99.90
37408;DHT22;24866;50.248;8.252;2023-09-07T13:50:42;32.20;17.40
37408;DHT22;24866;50.248;8.252;2023-09-07T13:53:15;32.00;1.00
37408;DHT22;24866;50.248;8.252;2023-09-07T13:55:45;32.10;1.00
37408;DHT22;24866;50.248;8.252;2023-09-07T13:58:17;32.10;1.00
37408;DHT22;24866;50.248;8.252;2023-09-07T14:00:47;32.10;1.00
37408;DHT22;24866;50.248;8.252;2023-09-07T14:03:19;32.50;1.00
37408;DHT22;24866;50.248;8.252;2023-09-07T14:05:48;32.50;1.00
37408;DHT22;24866;50.248;8.252;2023-09-07T14:08:19;31.90;99.90
37408;DHT22;24866;50.248;8.252;2023-09-07T14:10:52;32.30;99.90
37408;DHT22;24866;50.248;8.252;2023-09-07T14:13:23;31.40;99.90
37408;DHT22;24866;50.248;8.252;2023-09-07T14:15:54;31.80;99.90
37408;DHT22;24866;50.248;8.252;2023-09-07T14:18:24;31.90;99.90
37408;DHT22;24866;50.248;8.252;2023-09-07T14:20:54;32.40;99.90
37408;DHT22;24866;50.248;8.252;2023-09-07T14:23:26;32.50;99.90
37408;DHT22;24866;50.248;8.252;2023-09-07T14:25:56;32.50;99.90
37408;DHT22;24866;50.248;8.252;2023-09-07T14:28:28;31.70;1.00
37408;DHT22;24866;50.248;8.252;2023-09-07T14:30:58;31.30;1.00
37408;DHT22;24866;50.248;8.252;2023-09-07T14:33:31;31.50;1.00
37408;DHT22;24866;50.248;8.252;2023-09-07T14:36:01;31.70;1.00
37408;DHT22;24866;50.248;8.252;2023-09-07T14:38:31;30.70;99.90
37408;DHT22;24866;50.248;8.252;2023-09-07T14:41:03;31.20;1.00
37408;DHT22;24866;50.248;8.252;2023-09-07T14:43:34;31.30;99.90
37408;DHT22;24866;50.248;8.252;2023-09-07T14:46:04;31.30;99.90
37408;DHT22;24866;50.248;8.252;2023-09-07T14:48:37;31.00;99.90
37408;DHT22;24866;50.248;8.252;2023-09-07T14:51:09;31.50;99.90
37408;DHT22;24866;50.248;8.252;2023-09-07T14:53:38;31.30;99.90
37408;DHT22;24866;50.248;8.252;2023-09-07T14:56:08;31.00;99.90
37408;DHT22;24866;50.248;8.252;2023-09-07T14:58:39;31.10;99.90
37408;DHT22;24866;50.248;8.252;2023-09-07T15:01:09;31.10;99.90
37408;DHT22;24866;50.248;8.252;2023-09-07T15:03:39;31.10;99.90
37408;DHT22;24866;50.248;8.252;2023-09-07T15:06:09;31.00;49.10
37408;DHT22;24866;50.248;8.252;2023-09-07T15:08:40;31.10;27.90
37408;DHT22;24866;50.248;8.252;2023-09-07T15:11:10;31.50;53.40
37408;DHT22;24866;50.248;8.252;2023-09-07T15:13:42;31.30;1.00
37408;DHT22;24866;50.248;8.252;2023-09-07T15:16:15;30.80;1.00
37408;DHT22;24866;50.248;8.252;2023-09-07T15:18:45;31.00;1.00
37408;DHT22;24866;50.248;8.252;2023-09-07T15:21:15;31.20;1.00
37408;DHT22;24866;50.248;8.252;2023-09-07T15:23:44;31.40;1.00
37408;DHT22;24866;50.248;8.252;2023-09-07T15:26:15;31.70;1.00
37408;DHT22;24866;50.248;8.252;2023-09-07T15:28:47;31.60;1.00
37408;DHT22;24866;50.248;8.252;2023-09-07T15:31:17;31.70;1.00
37408;DHT22;24866;50.248;8.252;2023-09-07T15:33:47;31.60;1.00
37408;DHT22;24866;50.248;8.252;2023-09-07T15:36:17;31.70;1.00
37408;DHT22;24866;50.248;8.252;2023-09-07T15:38:47;31.60;1.00
37408;DHT22;24866;50.248;8.252;2023-09-07T15:41:19;31.60;1.00
37408;DHT22;24866;50.248;8.252;2023-09-07T15:43:51;31.30;1.00
37408;DHT22;24866;50.248;8.252;2023-09-07T15:46:22;31.50;1.00
37408;DHT22;24866;50.248;8.252;2023-09-07T15:48:53;31.60;1.00
37408;DHT22;24866;50.248;8.252;2023-09-07T15:51:23;31.60;1.00
37408;DHT22;24866;50.248;8.252;2023-09-07T15:53:53;31.50;1.00